Terminal Aerodrome Forecast
Issued by NWS

Home | Current Version | Previous Version | Text Only | Print | Product List | Glossary On
Versions: 1 2 3 4 5 6 7 8 9 10 11 12 13 14 15 16
000
FTUS44 KJAN 280520
TAFHKS
TAF
KHKS 280520Z 2806/2906 00000KT P6SM FEW005 SCT070
     FM281000 00000KT 3SM BR OVC005
     FM281500 15004KT P6SM SCT025
     FM281800 25005KT P6SM VCSH BKN050
     FM282300 VRB03KT P6SM FEW250=

USA.gov is the U.S. government's official web portal to all federal, state and local government web resources and services.